createdAt,value
2019-02-15T00:00:57.934Z,15.88
2019-02-15T00:03:27.631Z,15.68
2019-02-15T00:05:57.312Z,15.68
2019-02-15T00:08:27.032Z,13.00
2019-02-15T00:10:56.698Z,14.65
2019-02-15T00:13:26.574Z,12.88
2019-02-15T00:15:56.274Z,14.55
2019-02-15T00:18:57.392Z,15.32
2019-02-15T00:21:30.243Z,15.00
2019-02-15T00:24:00.112Z,16.13
2019-02-15T00:26:29.823Z,15.15
2019-02-15T00:29:01.418Z,14.93
2019-02-15T00:31:31.183Z,13.70
2019-02-15T00:34:00.914Z,13.98
2019-02-15T00:36:30.587Z,13.05
2019-02-15T00:39:00.358Z,13.33
2019-02-15T00:41:30.111Z,14.13
2019-02-15T00:43:59.916Z,13.50
2019-02-15T00:46:38.526Z,11.53
2019-02-15T00:49:09.943Z,13.45
2019-02-15T00:52:01.827Z,12.90
2019-02-15T00:54:48.336Z,15.05
2019-02-15T00:57:29.285Z,13.20
2019-02-15T01:00:23.966Z,13.53
2019-02-15T01:03:11.575Z,15.23
2019-02-15T01:05:59.210Z,13.83
2019-02-15T01:08:56.824Z,14.20
2019-02-15T01:11:30.059Z,15.45
2019-02-15T01:13:59.787Z,14.98
2019-02-15T01:16:29.490Z,13.95
2019-02-15T01:18:59.231Z,12.43
2019-02-15T01:21:29.060Z,15.35
2019-02-15T01:23:58.983Z,14.85
2019-02-15T01:26:40.180Z,13.70
2019-02-15T01:29:47.290Z,13.43
2019-02-15T01:32:39.120Z,13.97
2019-02-15T01:35:30.849Z,14.47
2019-02-15T01:38:17.342Z,13.07
2019-02-15T01:41:09.321Z,13.38
2019-02-15T01:44:07.400Z,13.22
2019-02-15T01:46:50.164Z,14.18
2019-02-15T01:49:20.199Z,13.95
2019-02-15T01:51:50.026Z,12.88
2019-02-15T01:54:19.716Z,13.22
2019-02-15T01:56:49.471Z,13.35
2019-02-15T01:59:19.166Z,12.33
2019-02-15T02:01:48.939Z,12.10
2019-02-15T02:04:18.861Z,12.47
2019-02-15T02:06:48.530Z,11.85
2019-02-15T02:09:18.823Z,12.70
2019-02-15T02:11:48.512Z,11.88
2019-02-15T02:14:18.247Z,10.58
2019-02-15T02:16:48.013Z,10.72
2019-02-15T02:19:18.806Z,10.98
2019-02-15T02:21:48.553Z,10.28
2019-02-15T02:24:19.311Z,10.45
2019-02-15T02:26:49.105Z,9.60
2019-02-15T02:29:18.938Z,10.70
2019-02-15T02:31:52.303Z,10.90
2019-02-15T02:34:22.086Z,10.58
2019-02-15T02:36:55.915Z,12.25
2019-02-15T02:39:26.278Z,11.80
2019-02-15T02:41:56.054Z,12.35
2019-02-15T02:44:25.737Z,10.80
2019-02-15T02:46:55.573Z,12.00
2019-02-15T02:49:25.319Z,13.30
2019-02-15T02:51:55.139Z,12.95
2019-02-15T02:54:24.937Z,10.80
2019-02-15T02:56:54.788Z,11.75
2019-02-15T02:59:24.582Z,10.25
2019-02-15T03:01:54.387Z,11.33
2019-02-15T03:04:24.141Z,11.25
2019-02-15T03:06:54.986Z,11.38
2019-02-15T03:09:24.815Z,11.63
2019-02-15T03:11:54.679Z,10.60
2019-02-15T03:14:24.495Z,11.00
2019-02-15T03:16:54.407Z,11.28
2019-02-15T03:19:24.309Z,11.55
2019-02-15T03:21:54.017Z,11.53
2019-02-15T03:24:23.786Z,9.98
2019-02-15T03:26:53.562Z,11.03
2019-02-15T03:29:23.329Z,11.38
2019-02-15T03:31:53.115Z,10.77
2019-02-15T03:34:22.886Z,9.78
2019-02-15T03:37:04.279Z,11.53
2019-02-15T03:40:02.290Z,12.05
2019-02-15T03:42:32.189Z,10.88
2019-02-15T03:45:02.098Z,10.38
2019-02-15T03:47:32.003Z,10.75
2019-02-15T03:50:01.706Z,11.22
2019-02-15T03:52:31.654Z,11.10
2019-02-15T03:55:01.423Z,10.40
2019-02-15T03:57:32.122Z,11.70
2019-02-15T04:00:01.815Z,12.13
2019-02-15T04:02:31.618Z,9.70
2019-02-15T04:05:01.293Z,9.80
2019-02-15T04:07:31.138Z,10.45
2019-02-15T04:10:00.972Z,12.20
2019-02-15T04:12:32.279Z,10.60
2019-02-15T04:15:02.300Z,10.80
2019-02-15T04:17:32.110Z,10.78
2019-02-15T04:20:02.032Z,10.18
2019-02-15T04:22:31.802Z,10.60
2019-02-15T04:25:01.645Z,10.38
2019-02-15T04:27:31.523Z,10.85
2019-02-15T04:30:01.380Z,10.53
2019-02-15T04:32:31.338Z,11.63
2019-02-15T04:35:01.175Z,10.73
2019-02-15T04:37:31.002Z,11.53
2019-02-15T04:40:00.813Z,11.03
2019-02-15T04:42:31.681Z,11.78
2019-02-15T04:45:01.480Z,11.40
2019-02-15T04:47:31.351Z,10.35
2019-02-15T04:50:01.305Z,11.50
2019-02-15T04:52:31.269Z,11.70
2019-02-15T04:55:01.124Z,11.70
2019-02-15T04:57:31.127Z,11.12
2019-02-15T05:00:00.815Z,11.08
2019-02-15T05:02:32.118Z,11.43
2019-02-15T05:05:02.022Z,11.22
2019-02-15T05:07:32.016Z,10.45
2019-02-15T05:10:02.085Z,10.35
2019-02-15T05:12:31.843Z,11.12
2019-02-15T05:15:01.633Z,9.90
2019-02-15T05:17:32.704Z,10.70
2019-02-15T05:20:02.555Z,11.07
2019-02-15T05:22:32.246Z,11.25
2019-02-15T05:25:03.024Z,10.25
2019-02-15T05:27:32.800Z,10.55
2019-02-15T05:30:02.600Z,11.12
2019-02-15T05:32:32.435Z,11.55
2019-02-15T05:35:02.218Z,9.93
2019-02-15T05:37:32.063Z,11.83
2019-02-15T05:40:01.900Z,10.48
2019-02-15T05:42:31.779Z,11.38
2019-02-15T05:45:04.187Z,11.45
2019-02-15T05:47:33.227Z,11.80
2019-02-15T05:50:04.102Z,10.88
2019-02-15T05:52:33.954Z,11.05
2019-02-15T05:55:03.851Z,11.50
2019-02-15T05:57:33.655Z,11.18
2019-02-15T06:00:03.550Z,11.65
2019-02-15T06:02:33.401Z,12.28
2019-02-15T06:05:03.232Z,11.93
2019-02-15T06:07:33.171Z,11.43
2019-02-15T06:10:03.011Z,11.25
2019-02-15T06:12:32.829Z,12.05
2019-02-15T06:15:02.595Z,10.98
2019-02-15T06:17:33.252Z,11.95
2019-02-15T06:20:03.006Z,11.10
2019-02-15T06:22:32.699Z,12.25
2019-02-15T06:25:02.405Z,10.50
2019-02-15T06:27:32.243Z,12.20
2019-02-15T06:30:02.129Z,12.40
2019-02-15T06:32:32.114Z,11.00
2019-02-15T06:35:02.188Z,11.65
2019-02-15T06:37:32.150Z,12.43
2019-02-15T06:40:01.946Z,11.70
2019-02-15T06:42:31.791Z,12.55
2019-02-15T06:45:01.666Z,11.95
2019-02-15T06:47:31.450Z,12.65
2019-02-15T06:50:01.304Z,13.03
2019-02-15T06:52:31.088Z,12.58
2019-02-15T06:55:00.894Z,11.95
2019-02-15T06:57:30.684Z,12.73
2019-02-15T07:00:31.495Z,12.18
2019-02-15T07:03:06.619Z,11.97
2019-02-15T07:05:36.328Z,12.05
2019-02-15T07:08:06.099Z,12.73
2019-02-15T07:10:35.819Z,13.62
2019-02-15T07:13:05.575Z,11.73
2019-02-15T07:15:35.427Z,11.20
2019-02-15T07:18:05.226Z,11.73
2019-02-15T07:20:35.077Z,12.55
2019-02-15T07:23:04.904Z,13.80
2019-02-15T07:25:34.761Z,12.10
2019-02-15T07:28:04.576Z,12.13
2019-02-15T07:30:34.284Z,12.47
2019-02-15T07:33:04.167Z,11.80
2019-02-15T07:35:33.996Z,12.70
2019-02-15T07:38:03.730Z,14.33
2019-02-15T07:40:33.456Z,13.75
2019-02-15T07:43:03.267Z,13.78
2019-02-15T07:45:32.993Z,14.40
2019-02-15T07:48:02.893Z,15.72
2019-02-15T07:50:32.590Z,12.47
2019-02-15T07:53:02.432Z,11.97
2019-02-15T07:55:32.151Z,14.80
2019-02-15T07:58:01.968Z,14.20
2019-02-15T08:00:31.717Z,12.80
2019-02-15T08:03:01.600Z,12.65
2019-02-15T08:05:31.486Z,13.68
2019-02-15T08:08:01.202Z,13.20
2019-02-15T08:10:30.954Z,16.17
2019-02-15T08:13:00.914Z,13.88
2019-02-15T08:15:36.149Z,14.77
2019-02-15T08:18:02.072Z,13.48
2019-02-15T08:20:31.875Z,14.95
2019-02-15T08:23:01.679Z,12.47
2019-02-15T08:25:31.531Z,12.75
2019-02-15T08:28:01.350Z,14.35
2019-02-15T08:30:31.051Z,18.77
2019-02-15T08:33:00.887Z,17.57
2019-02-15T08:35:30.667Z,13.43
2019-02-15T08:38:00.567Z,14.13
2019-02-15T08:40:30.330Z,12.18
2019-02-15T08:43:00.243Z,12.93
2019-02-15T08:45:30.005Z,11.95
2019-02-15T08:47:59.876Z,11.40
2019-02-15T08:50:29.713Z,12.25
2019-02-15T08:52:59.595Z,11.90
2019-02-15T08:55:29.392Z,11.33
2019-02-15T08:57:59.211Z,10.32
2019-02-15T09:00:29.099Z,10.88
2019-02-15T09:02:58.887Z,10.50
2019-02-15T09:05:29.631Z,12.15
2019-02-15T09:07:59.446Z,12.33
2019-02-15T09:10:29.290Z,12.80
2019-02-15T09:12:59.007Z,12.93
2019-02-15T09:15:28.774Z,14.15
2019-02-15T09:17:58.471Z,13.38
2019-02-15T09:20:28.364Z,13.83
2019-02-15T09:22:58.113Z,17.77
2019-02-15T09:25:27.886Z,16.48
2019-02-15T09:28:16.705Z,16.32
2019-02-15T09:30:50.683Z,17.92
2019-02-15T09:33:20.525Z,14.60
2019-02-15T09:35:50.391Z,15.60
2019-02-15T09:38:20.175Z,14.90
2019-02-15T09:40:50.066Z,14.20
2019-02-15T09:43:20.011Z,13.95
2019-02-15T09:45:49.835Z,14.58
2019-02-15T09:48:19.695Z,14.98
2019-02-15T09:50:49.666Z,14.40
2019-02-15T09:53:19.677Z,12.83
2019-02-15T09:55:49.484Z,12.63
2019-02-15T09:58:19.315Z,13.07
2019-02-15T10:00:49.127Z,13.50
2019-02-15T10:03:19.048Z,12.55
2019-02-15T10:05:48.948Z,13.43
2019-02-15T10:08:18.710Z,12.80
2019-02-15T10:10:48.703Z,12.90
2019-02-15T10:13:18.570Z,13.83
2019-02-15T10:15:48.519Z,13.55
2019-02-15T10:18:18.227Z,13.90
2019-02-15T10:20:48.178Z,14.35
2019-02-15T10:23:17.933Z,13.98
2019-02-15T10:25:47.730Z,13.55
2019-02-15T10:28:17.596Z,15.18
2019-02-15T10:30:47.598Z,14.75
2019-02-15T10:33:18.494Z,14.47
2019-02-15T10:35:48.363Z,13.90
2019-02-15T10:38:18.146Z,15.23
2019-02-15T10:40:48.066Z,14.40
2019-02-15T10:43:17.798Z,14.70
2019-02-15T10:45:47.709Z,14.05
2019-02-15T10:48:17.574Z,13.83
2019-02-15T10:50:47.330Z,14.83
2019-02-15T10:53:17.240Z,13.90
2019-02-15T10:55:47.090Z,13.50
2019-02-15T10:58:16.803Z,14.63
2019-02-15T11:00:46.662Z,13.55
2019-02-15T11:03:16.455Z,14.50
2019-02-15T11:05:46.360Z,14.53
2019-02-15T11:08:16.077Z,13.67
2019-02-15T11:10:45.812Z,13.30
2019-02-15T11:13:15.661Z,13.65
2019-02-15T11:15:45.479Z,12.75
2019-02-15T11:18:15.301Z,12.70
2019-02-15T11:20:45.200Z,12.28
2019-02-15T11:23:14.979Z,12.65
2019-02-15T11:25:44.710Z,12.00
2019-02-15T11:28:14.511Z,12.30
2019-02-15T11:30:44.311Z,11.63
2019-02-15T11:33:15.158Z,12.95
2019-02-15T11:35:44.936Z,12.45
2019-02-15T11:38:14.963Z,12.00
2019-02-15T11:40:44.795Z,13.85
2019-02-15T11:43:15.115Z,12.70
2019-02-15T11:45:45.123Z,12.25
2019-02-15T11:48:15.071Z,12.25
2019-02-15T11:50:44.863Z,12.60
2019-02-15T11:53:14.763Z,11.05
2019-02-15T11:55:44.481Z,11.83
2019-02-15T11:58:14.371Z,12.50
2019-02-15T12:00:44.183Z,11.83
2019-02-15T12:03:14.071Z,11.45
2019-02-15T12:05:43.867Z,11.60
2019-02-15T12:08:13.581Z,11.93
2019-02-15T12:10:43.355Z,10.65
2019-02-15T12:13:13.071Z,10.53
2019-02-15T12:15:42.864Z,10.27
2019-02-15T12:18:12.658Z,11.50
2019-02-15T12:20:42.910Z,10.32
2019-02-15T12:23:12.703Z,11.80
2019-02-15T12:25:42.523Z,10.30
2019-02-15T12:28:12.387Z,10.30
2019-02-15T12:30:42.170Z,9.23
2019-02-15T12:33:12.036Z,9.98
2019-02-15T12:35:41.847Z,10.03
2019-02-15T12:38:11.708Z,8.93
2019-02-15T12:40:41.386Z,10.40
2019-02-15T12:43:11.273Z,8.90
2019-02-15T12:45:41.171Z,10.43
2019-02-15T12:48:10.918Z,11.70
2019-02-15T12:50:40.850Z,9.63
2019-02-15T12:53:10.680Z,9.58
2019-02-15T12:55:40.500Z,9.55
2019-02-15T12:58:10.262Z,9.45
2019-02-15T13:00:40.100Z,9.43
2019-02-15T13:03:09.915Z,8.83
2019-02-15T13:05:39.829Z,7.90
2019-02-15T13:08:09.603Z,9.68
2019-02-15T13:10:40.614Z,10.08
2019-02-15T13:13:10.408Z,9.25
2019-02-15T13:15:40.242Z,8.98
2019-02-15T13:18:10.152Z,7.58
2019-02-15T13:20:39.977Z,8.48
2019-02-15T13:23:09.764Z,7.25
2019-02-15T13:25:39.696Z,6.73
2019-02-15T13:28:09.460Z,6.40
2019-02-15T13:30:39.179Z,6.70
2019-02-15T13:33:08.892Z,6.70
2019-02-15T13:35:39.673Z,7.15
2019-02-15T13:38:10.575Z,6.75
2019-02-15T13:40:40.396Z,6.07
2019-02-15T13:43:12.071Z,6.10
2019-02-15T13:45:42.121Z,6.40
2019-02-15T13:48:11.914Z,5.65
2019-02-15T13:50:41.843Z,5.45
2019-02-15T13:53:11.707Z,6.23
2019-02-15T13:55:41.683Z,5.80
2019-02-15T13:58:11.500Z,5.83
2019-02-15T14:00:41.447Z,5.67
2019-02-15T14:03:11.315Z,5.65
2019-02-15T14:05:41.034Z,5.58
2019-02-15T14:08:10.823Z,5.20
2019-02-15T14:10:40.770Z,4.90
2019-02-15T14:13:10.476Z,5.03
2019-02-15T14:15:40.342Z,5.08
2019-02-15T14:18:10.196Z,5.22
2019-02-15T14:20:40.199Z,5.45
2019-02-15T14:23:09.921Z,6.08
2019-02-15T14:25:39.803Z,5.42
2019-02-15T14:28:09.652Z,5.05
2019-02-15T14:30:39.589Z,4.92
2019-02-15T14:33:09.284Z,4.10
2019-02-15T14:35:39.127Z,3.92
2019-02-15T14:38:09.017Z,4.65
2019-02-15T14:40:38.896Z,4.07
2019-02-15T14:43:08.843Z,3.70
2019-02-15T14:45:38.740Z,3.75
2019-02-15T14:48:08.570Z,3.98
2019-02-15T14:50:38.415Z,4.12
2019-02-15T14:53:08.248Z,3.53
2019-02-15T14:55:37.980Z,3.40
2019-02-15T14:58:07.787Z,3.55
2019-02-15T15:00:37.578Z,3.60
2019-02-15T15:03:07.447Z,3.35
2019-02-15T15:05:37.350Z,3.20
2019-02-15T15:08:07.218Z,3.67
2019-02-15T15:10:37.977Z,3.67
2019-02-15T15:13:08.032Z,4.60
2019-02-15T15:15:37.914Z,5.10
2019-02-15T15:18:13.026Z,3.60
2019-02-15T15:20:39.084Z,4.00
2019-02-15T15:23:08.951Z,4.50
2019-02-15T15:25:38.803Z,4.42
2019-02-15T15:28:08.667Z,5.90
2019-02-15T15:30:38.521Z,4.37
2019-02-15T15:33:08.347Z,3.62
2019-02-15T15:35:38.200Z,4.03
2019-02-15T15:38:10.546Z,4.45
2019-02-15T15:40:41.121Z,4.15
2019-02-15T15:43:10.926Z,5.03
2019-02-15T15:45:40.727Z,10.67
2019-02-15T15:48:10.652Z,4.78
2019-02-15T15:50:40.547Z,4.35
2019-02-15T15:53:10.500Z,4.17
2019-02-15T15:55:40.302Z,4.50
2019-02-15T15:58:10.178Z,3.90
2019-02-15T16:00:40.279Z,4.58
2019-02-15T16:03:10.134Z,4.45
2019-02-15T16:05:39.998Z,4.60
2019-02-15T16:08:09.878Z,4.40
2019-02-15T16:10:39.689Z,4.80
2019-02-15T16:13:09.621Z,4.37
2019-02-15T16:15:39.468Z,18.80
2019-02-15T16:18:09.323Z,5.75
2019-02-15T16:20:39.090Z,5.03
2019-02-15T16:23:08.875Z,4.70
2019-02-15T16:25:38.711Z,4.62
2019-02-15T16:28:08.684Z,4.55
2019-02-15T16:30:38.629Z,4.55
2019-02-15T16:33:10.429Z,6.83
2019-02-15T16:35:40.032Z,5.37
2019-02-15T16:38:09.937Z,4.70
2019-02-15T16:40:39.816Z,5.00
2019-02-15T16:43:09.837Z,5.40
2019-02-15T16:45:39.692Z,6.25
2019-02-15T16:48:09.671Z,5.53
2019-02-15T16:50:39.471Z,5.17
2019-02-15T16:53:09.260Z,5.03
2019-02-15T16:55:39.063Z,5.22
2019-02-15T16:58:08.893Z,5.10
2019-02-15T17:00:38.849Z,5.58
2019-02-15T17:03:08.622Z,5.10
2019-02-15T17:05:38.532Z,5.17
2019-02-15T17:08:08.299Z,7.87
2019-02-15T17:10:38.083Z,7.40
2019-02-15T17:13:07.802Z,5.62
2019-02-15T17:15:37.690Z,5.10
2019-02-15T17:18:07.526Z,5.00
2019-02-15T17:20:37.249Z,5.75
2019-02-15T17:23:07.027Z,5.30
2019-02-15T17:25:36.848Z,5.05
2019-02-15T17:28:06.559Z,5.13
2019-02-15T17:30:37.404Z,4.97
2019-02-15T17:33:07.107Z,5.65
2019-02-15T17:35:36.983Z,5.62
2019-02-15T17:38:06.755Z,5.93
2019-02-15T17:40:36.662Z,5.37
2019-02-15T17:43:06.487Z,12.13
2019-02-15T17:45:36.305Z,6.90
2019-02-15T17:48:06.150Z,5.83
2019-02-15T17:50:35.946Z,6.12
2019-02-15T17:53:05.834Z,6.70
2019-02-15T17:55:36.594Z,6.07
2019-02-15T17:58:06.471Z,5.12
2019-02-15T18:00:36.452Z,5.35
2019-02-15T18:03:06.214Z,5.65
2019-02-15T18:05:36.031Z,6.17
2019-02-15T18:08:05.892Z,6.20
2019-02-15T18:10:35.900Z,6.17
2019-02-15T18:13:05.719Z,5.80
2019-02-15T18:15:35.447Z,5.80
2019-02-15T18:18:05.446Z,5.60
2019-02-15T18:20:35.276Z,5.97
2019-02-15T18:23:05.282Z,6.10
2019-02-15T18:25:35.137Z,6.20
2019-02-15T18:28:05.025Z,6.78
2019-02-15T18:30:34.883Z,7.20
2019-02-15T18:33:04.623Z,8.28
2019-02-15T18:35:34.534Z,7.45
2019-02-15T18:38:04.395Z,7.70
2019-02-15T18:40:34.161Z,8.28
2019-02-15T18:43:04.178Z,8.08
2019-02-15T18:45:33.885Z,9.08
2019-02-15T18:48:03.755Z,9.45
2019-02-15T18:50:33.587Z,9.55
2019-02-15T18:53:03.467Z,9.85
2019-02-15T18:55:33.204Z,9.45
2019-02-15T18:58:03.023Z,8.80
2019-02-15T19:00:32.791Z,9.25
2019-02-15T19:03:02.931Z,9.30
2019-02-15T19:05:32.622Z,9.18
2019-02-15T19:08:02.462Z,9.30
2019-02-15T19:10:32.266Z,9.40
2019-02-15T19:13:02.481Z,9.30
2019-02-15T19:15:32.194Z,9.88
2019-02-15T19:18:02.073Z,9.43
2019-02-15T19:20:31.999Z,9.68
2019-02-15T19:23:02.067Z,10.25
2019-02-15T19:25:32.003Z,8.70
2019-02-15T19:28:02.539Z,9.10
2019-02-15T19:30:32.651Z,9.23
2019-02-15T19:33:02.411Z,9.95
2019-02-15T19:35:32.182Z,9.85
2019-02-15T19:38:02.106Z,9.38
2019-02-15T19:40:31.931Z,9.25
2019-02-15T19:43:02.099Z,8.80
2019-02-15T19:45:31.841Z,9.75
2019-02-15T19:48:01.715Z,8.83
2019-02-15T19:50:31.456Z,8.90
2019-02-15T19:53:01.446Z,9.48
2019-02-15T19:55:31.465Z,9.10
2019-02-15T19:58:01.426Z,17.30
2019-02-15T20:00:32.192Z,12.88
2019-02-15T20:03:02.044Z,13.08
2019-02-15T20:05:31.783Z,9.45
2019-02-15T20:08:01.571Z,10.40
2019-02-15T20:10:31.371Z,10.28
2019-02-15T20:13:01.235Z,10.88
2019-02-15T20:15:31.230Z,10.20
2019-02-15T20:18:00.993Z,10.05
2019-02-15T20:20:31.110Z,9.00
2019-02-15T20:23:01.265Z,10.43
2019-02-15T20:25:31.179Z,11.22
2019-02-15T20:28:02.945Z,10.43
2019-02-15T20:30:32.811Z,10.08
2019-02-15T20:33:02.743Z,11.18
2019-02-15T20:35:32.564Z,11.73
2019-02-15T20:38:02.342Z,11.18
2019-02-15T20:40:32.266Z,11.97
2019-02-15T20:43:02.101Z,11.18
2019-02-15T20:45:31.886Z,12.15
2019-02-15T20:48:01.690Z,11.93
2019-02-15T20:50:31.590Z,12.33
2019-02-15T20:53:01.287Z,9.75
2019-02-15T20:55:31.037Z,10.45
2019-02-15T20:58:01.027Z,12.20
2019-02-15T21:00:30.853Z,11.22
2019-02-15T21:03:00.611Z,11.68
2019-02-15T21:05:30.419Z,10.38
2019-02-15T21:08:00.214Z,11.70
2019-02-15T21:10:29.913Z,11.30
2019-02-15T21:12:59.759Z,12.93
2019-02-15T21:15:29.556Z,12.47
2019-02-15T21:17:59.378Z,12.15
2019-02-15T21:20:29.262Z,12.13
2019-02-15T21:22:59.120Z,12.33
2019-02-15T21:25:29.065Z,11.22
2019-02-15T21:27:58.786Z,11.45
2019-02-15T21:30:28.586Z,11.90
2019-02-15T21:32:58.459Z,12.30
2019-02-15T21:35:28.355Z,12.65
2019-02-15T21:37:58.140Z,12.35
2019-02-15T21:40:28.106Z,12.05
2019-02-15T21:42:57.879Z,13.43
2019-02-15T21:45:27.642Z,12.23
2019-02-15T21:47:57.363Z,13.80
2019-02-15T21:50:27.214Z,12.95
2019-02-15T21:52:57.087Z,13.50
2019-02-15T21:55:26.906Z,12.55
2019-02-15T21:58:01.362Z,14.50
2019-02-15T22:00:28.588Z,14.50
2019-02-15T22:02:58.418Z,13.98
2019-02-15T22:05:28.291Z,14.30
2019-02-15T22:07:58.063Z,13.93
2019-02-15T22:10:27.909Z,13.88
2019-02-15T22:12:57.802Z,14.00
2019-02-15T22:15:27.623Z,12.78
2019-02-15T22:17:57.483Z,13.65
2019-02-15T22:20:27.311Z,13.48
2019-02-15T22:22:57.137Z,12.50
2019-02-15T22:25:26.872Z,14.30
2019-02-15T22:27:56.675Z,13.72
2019-02-15T22:30:26.534Z,14.93
2019-02-15T22:32:56.334Z,14.07
2019-02-15T22:35:26.085Z,14.23
2019-02-15T22:37:55.875Z,16.63
2019-02-15T22:40:33.187Z,16.73
2019-02-15T22:43:17.755Z,14.35
2019-02-15T22:45:47.684Z,14.05
2019-02-15T22:48:19.097Z,14.10
2019-02-15T22:50:48.790Z,11.83
2019-02-15T22:53:18.676Z,13.90
2019-02-15T22:55:48.541Z,12.33
2019-02-15T22:58:18.608Z,13.48
2019-02-15T23:00:58.175Z,11.95
2019-02-15T23:03:28.399Z,13.58
2019-02-15T23:05:58.480Z,12.78
2019-02-15T23:08:28.333Z,13.22
2019-02-15T23:10:58.066Z,13.43
2019-02-15T23:13:27.806Z,13.78
2019-02-15T23:15:57.515Z,13.10
2019-02-15T23:18:27.430Z,13.00
2019-02-15T23:20:57.159Z,12.45
2019-02-15T23:23:26.926Z,12.07
2019-02-15T23:25:56.724Z,11.13
2019-02-15T23:28:26.599Z,12.43
2019-02-15T23:30:56.314Z,12.15
2019-02-15T23:33:27.146Z,13.13
2019-02-15T23:35:56.915Z,14.43
2019-02-15T23:38:26.700Z,15.43
2019-02-15T23:40:56.479Z,13.48
2019-02-15T23:43:26.279Z,18.87
2019-02-15T23:45:55.999Z,16.97
2019-02-15T23:48:25.800Z,18.82
2019-02-15T23:50:55.548Z,19.52
2019-02-15T23:53:25.359Z,17.20
2019-02-15T23:55:55.158Z,17.07
2019-02-15T23:58:25.864Z,18.37
